createdAt,value
2018-02-17T00:01:02.000Z,0.59
2018-02-17T00:02:01.660Z,0.5
2018-02-17T00:03:02.092Z,0.7
2018-02-17T00:04:03.801Z,0.57
2018-02-17T00:05:05.055Z,0.66
2018-02-17T00:06:05.971Z,0.6
2018-02-17T00:07:07.267Z,0.5
2018-02-17T00:08:07.475Z,0.66
2018-02-17T00:09:09.189Z,0.62
2018-02-17T00:10:09.593Z,0.66
2018-02-17T00:11:09.814Z,0.62
2018-02-17T00:12:10.339Z,0.65
2018-02-17T00:13:11.264Z,0.7
2018-02-17T00:14:13.770Z,0.66
2018-02-17T00:15:14.694Z,0.57
2018-02-17T00:16:15.233Z,0.75
2018-02-17T00:17:16.701Z,0.66
2018-02-17T00:18:17.726Z,0.67
2018-02-17T00:19:17.974Z,0.69
2018-02-17T00:20:18.808Z,0.7
2018-02-17T00:21:20.023Z,0.67
2018-02-17T00:22:21.366Z,0.69
2018-02-17T00:23:21.683Z,0.66
2018-02-17T00:24:23.363Z,0.51
2018-02-17T00:25:23.303Z,0.65
2018-02-17T00:26:25.645Z,0.54
2018-02-17T00:27:26.028Z,0.54
2018-02-17T00:28:26.501Z,0.75
2018-02-17T00:29:27.419Z,0.88
2018-02-17T00:30:29.102Z,0.7
2018-02-17T00:31:31.187Z,0.62
2018-02-17T00:32:31.067Z,0.65
2018-02-17T00:33:34.084Z,0.62
2018-02-17T00:34:32.998Z,0.63
2018-02-17T00:35:34.459Z,0.66
2018-02-17T00:36:37.457Z,0.62
2018-02-17T00:37:37.292Z,0.59
2018-02-17T00:38:36.771Z,0.66
2018-02-17T00:39:38.502Z,0.7
2018-02-17T00:40:39.172Z,0.69
2018-02-17T00:41:41.185Z,0.72
2018-02-17T00:42:41.925Z,0.62
2018-02-17T00:43:42.946Z,0.66
2018-02-17T00:44:42.527Z,0.67
2018-02-17T00:45:44.545Z,0.66
2018-02-17T00:46:45.837Z,0.76
2018-02-17T00:47:47.463Z,0.65
2018-02-17T00:48:48.909Z,0.7
2018-02-17T00:49:48.764Z,0.5
2018-02-17T00:50:49.118Z,0.56
2018-02-17T00:51:50.569Z,0.62
2018-02-17T00:52:51.088Z,0.54
2018-02-17T00:53:52.157Z,0.59
2018-02-17T00:54:53.852Z,0.6
2018-02-17T00:55:54.015Z,0.65
2018-02-17T00:56:56.770Z,0.6
2018-02-17T00:57:56.943Z,0.6
2018-02-17T00:58:59.491Z,0.59
2018-02-17T00:59:57.959Z,0.73
2018-02-17T01:00:59.502Z,0.56
2018-02-17T01:02:01.590Z,0.62
2018-02-17T01:03:02.233Z,0.62
2018-02-17T01:04:02.574Z,0.63
2018-02-17T01:05:02.385Z,0.73
2018-02-17T01:06:06.085Z,0.67
2018-02-17T01:07:04.777Z,0.78
2018-02-17T01:08:06.128Z,0.78
2018-02-17T01:09:06.349Z,0.66
2018-02-17T01:10:08.124Z,0.51
2018-02-17T01:11:09.083Z,0.5
2018-02-17T01:12:11.058Z,0.62
2018-02-17T01:13:11.307Z,0.56
2018-02-17T01:14:13.670Z,0.62
2018-02-17T01:15:15.074Z,0.57
2018-02-17T01:16:13.914Z,0.6
2018-02-17T01:17:15.882Z,0.59
2018-02-17T01:18:16.512Z,0.51
2018-02-17T01:19:18.103Z,0.5
2018-02-17T01:20:17.577Z,0.57
2018-02-17T01:21:19.199Z,0.57
2018-02-17T01:22:19.876Z,0.59
2018-02-17T01:23:20.579Z,0.59
2018-02-17T01:24:22.939Z,0.66
2018-02-17T01:25:23.846Z,0.72
2018-02-17T01:26:24.869Z,0.54
2018-02-17T01:27:25.411Z,0.57
2018-02-17T01:28:26.214Z,0.53
2018-02-17T01:29:29.348Z,0.44
2018-02-17T01:30:28.106Z,0.45
2018-02-17T01:31:28.864Z,0.53
2018-02-17T01:32:30.229Z,0.44
2018-02-17T01:33:30.986Z,0.51
2018-02-17T01:34:32.440Z,0.5
2018-02-17T01:35:33.491Z,0.53
2018-02-17T01:36:33.411Z,0.5
2018-02-17T01:37:35.711Z,0.7
2018-02-17T01:38:36.056Z,0.62
2018-02-17T01:39:36.493Z,0.44
2018-02-17T01:40:38.085Z,0.51
2018-02-17T01:41:39.199Z,0.5
2018-02-17T01:42:41.800Z,0.5
2018-02-17T01:43:41.812Z,0.5
2018-02-17T01:44:42.082Z,0.54
2018-02-17T01:45:43.654Z,0.73
2018-02-17T01:46:44.066Z,0.73
2018-02-17T01:47:44.735Z,0.78
2018-02-17T01:48:46.260Z,0.62
2018-02-17T01:49:46.521Z,0.6
2018-02-17T01:50:48.364Z,0.65
2018-02-17T01:51:48.816Z,0.5
2018-02-17T01:52:50.802Z,0.51
2018-02-17T01:53:50.876Z,0.54
2018-02-17T01:54:51.178Z,0.54
2018-02-17T01:55:53.337Z,0.57
2018-02-17T01:56:53.462Z,0.5
2018-02-17T01:57:54.901Z,0.54
2018-02-17T01:58:55.911Z,0.57
2018-02-17T01:59:57.807Z,0.63
2018-02-17T02:00:58.881Z,0.54
2018-02-17T02:02:00.760Z,0.62
2018-02-17T02:03:01.132Z,0.57
2018-02-17T02:04:01.172Z,0.44
2018-02-17T02:05:03.287Z,0.6
2018-02-17T02:06:02.976Z,0.59
2018-02-17T02:07:03.913Z,0.5
2018-02-17T02:08:05.244Z,0.66
2018-02-17T02:09:06.867Z,0.54
2018-02-17T02:10:07.275Z,0.56
2018-02-17T02:11:08.234Z,0.57
2018-02-17T02:12:09.265Z,0.57
2018-02-17T02:13:10.497Z,0.59
2018-02-17T02:14:11.118Z,0.5
2018-02-17T02:15:12.780Z,0.63
2018-02-17T02:16:13.119Z,0.78
2018-02-17T02:17:14.915Z,0.78
2018-02-17T02:18:16.822Z,0.62
2018-02-17T02:19:16.174Z,0.65
2018-02-17T02:20:18.121Z,0.62
2018-02-17T02:21:19.488Z,0.62
2018-02-17T02:22:19.433Z,0.56
2018-02-17T02:23:20.211Z,0.67
2018-02-17T02:24:20.913Z,0.73
2018-02-17T02:25:23.536Z,0.63
2018-02-17T02:26:22.454Z,0.5
2018-02-17T02:27:24.887Z,0.6
2018-02-17T02:28:26.247Z,0.5
2018-02-17T02:29:25.521Z,0.69
2018-02-17T02:30:27.886Z,0.54
2018-02-17T02:31:28.191Z,0.66
2018-02-17T02:32:29.139Z,0.54
2018-02-17T02:33:31.098Z,0.5
2018-02-17T02:34:33.405Z,0.5
2018-02-17T02:35:32.557Z,0.54
2018-02-17T02:36:33.113Z,0.5
2018-02-17T02:37:34.580Z,0.47
2018-02-17T02:38:35.827Z,0.5
2018-02-17T02:39:36.462Z,0.47
2018-02-17T02:40:37.560Z,0.48
2018-02-17T02:41:37.498Z,0.45
2018-02-17T02:42:39.968Z,0.54
2018-02-17T02:43:40.519Z,0.45
2018-02-17T02:44:41.852Z,0.44
2018-02-17T02:45:43.664Z,0.5
2018-02-17T02:46:42.474Z,0.53
2018-02-17T02:47:43.524Z,0.5
2018-02-17T02:48:45.838Z,0.56
2018-02-17T02:49:45.540Z,0.5
2018-02-17T02:50:47.360Z,0.6
2018-02-17T02:51:49.492Z,0.54
2018-02-17T02:52:50.162Z,0.54
2018-02-17T02:53:51.210Z,0.54
2018-02-17T02:54:51.874Z,0.53
2018-02-17T02:55:52.685Z,0.51
2018-02-17T02:56:52.451Z,0.53
2018-02-17T02:57:54.663Z,0.48
2018-02-17T02:58:55.946Z,0.44
2018-02-17T02:59:56.704Z,0.38
2018-02-17T03:00:57.899Z,0.54
2018-02-17T03:01:57.926Z,0.43
2018-02-17T03:02:58.950Z,0.43
2018-02-17T03:04:00.823Z,0.38
2018-02-17T03:05:01.584Z,0.43
2018-02-17T03:06:02.540Z,0.4
2018-02-17T03:07:04.366Z,0.38
2018-02-17T03:08:04.247Z,0.43
2018-02-17T03:09:06.116Z,0.47
2018-02-17T03:10:06.319Z,0.38
2018-02-17T03:11:08.021Z,0.43
2018-02-17T03:12:08.319Z,0.41
2018-02-17T03:13:09.845Z,0.43
2018-02-17T03:14:11.125Z,0.43
2018-02-17T03:15:12.802Z,0.47
2018-02-17T03:16:13.799Z,0.43
2018-02-17T03:17:14.005Z,0.41
2018-02-17T03:18:14.940Z,0.48
2018-02-17T03:19:17.276Z,0.48
2018-02-17T03:20:16.745Z,0.45
2018-02-17T03:21:17.867Z,0.47
2018-02-17T03:22:17.847Z,0.38
2018-02-17T03:23:18.924Z,0.45
2018-02-17T03:24:20.860Z,0.54
2018-02-17T03:25:21.063Z,0.57
2018-02-17T03:26:22.528Z,0.5
2018-02-17T03:27:24.820Z,0.54
2018-02-17T03:28:24.704Z,0.5
2018-02-17T03:29:25.775Z,0.45
2018-02-17T03:30:26.230Z,0.44
2018-02-17T03:31:27.139Z,0.48
2018-02-17T03:32:28.246Z,0.5
2018-02-17T03:33:28.436Z,0.5
2018-02-17T03:34:29.792Z,0.5
2018-02-17T03:35:31.121Z,0.54
2018-02-17T03:36:32.800Z,0.51
2018-02-17T03:37:33.098Z,0.44
2018-02-17T03:38:34.218Z,0.54
2018-02-17T03:39:36.875Z,0.43
2018-02-17T03:40:36.061Z,0.54
2018-02-17T03:41:37.469Z,0.5
2018-02-17T03:42:38.835Z,0.45
2018-02-17T03:43:39.830Z,0.57
2018-02-17T03:44:40.867Z,0.59
2018-02-17T03:45:41.253Z,0.54
2018-02-17T03:46:43.049Z,0.48
2018-02-17T03:47:42.562Z,0.48
2018-02-17T03:48:44.726Z,0.4
2018-02-17T03:49:46.547Z,0.45
2018-02-17T03:50:47.029Z,0.47
2018-02-17T03:51:48.200Z,0.45
2018-02-17T03:52:49.859Z,0.48
2018-02-17T03:53:49.309Z,0.44
2018-02-17T03:54:51.430Z,0.44
2018-02-17T03:55:52.076Z,0.47
2018-02-17T03:56:52.253Z,0.44
2018-02-17T03:57:54.157Z,0.54
2018-02-17T03:58:55.014Z,0.54
2018-02-17T03:59:56.473Z,0.48
2018-02-17T04:00:56.461Z,0.48
2018-02-17T04:01:57.304Z,0.53
2018-02-17T04:02:57.602Z,0.54
2018-02-17T04:03:59.286Z,0.51
2018-02-17T04:05:00.100Z,0.51
2018-02-17T04:06:01.657Z,0.48
2018-02-17T04:07:01.925Z,0.5
2018-02-17T04:08:03.076Z,0.5
2018-02-17T04:09:04.388Z,0.38
2018-02-17T04:10:06.266Z,0.5
2018-02-17T04:11:06.548Z,0.5
2018-02-17T04:12:08.333Z,0.44
2018-02-17T04:13:07.857Z,0.5
2018-02-17T04:14:10.204Z,0.5
2018-02-17T04:15:11.197Z,0.57
2018-02-17T04:16:12.805Z,0.54
2018-02-17T04:17:14.220Z,0.51
2018-02-17T04:18:14.278Z,0.54
2018-02-17T04:19:14.584Z,0.44
2018-02-17T04:20:18.136Z,0.5
2018-02-17T04:21:17.952Z,0.5
2018-02-17T04:22:18.207Z,0.45
2018-02-17T04:23:20.162Z,0.54
2018-02-17T04:24:21.046Z,0.53
2018-02-17T04:25:22.937Z,0.44
2018-02-17T04:26:23.186Z,0.54
2018-02-17T04:27:24.369Z,0.41
2018-02-17T04:28:24.641Z,0.54
2018-02-17T04:29:25.777Z,0.38
2018-02-17T04:30:25.989Z,0.38
2018-02-17T04:31:28.008Z,0.43
2018-02-17T04:32:28.346Z,0.43
2018-02-17T04:33:28.994Z,0.43
2018-02-17T04:34:30.322Z,0.35
2018-02-17T04:35:31.536Z,0.41
2018-02-17T04:36:31.941Z,0.38
2018-02-17T04:37:33.710Z,0.38
2018-02-17T04:38:34.690Z,0.38
2018-02-17T04:39:34.418Z,0.43
2018-02-17T04:40:36.296Z,0.45
2018-02-17T04:41:37.668Z,0.47
2018-02-17T04:42:38.062Z,0.38
2018-02-17T04:43:39.825Z,0.54
2018-02-17T04:44:40.776Z,0.69
2018-02-17T04:45:40.941Z,0.43
2018-02-17T04:46:41.707Z,0.38
2018-02-17T04:47:43.991Z,0.48
2018-02-17T04:48:43.756Z,0.38
2018-02-17T04:49:44.615Z,0.48
2018-02-17T04:50:46.385Z,0.38
2018-02-17T04:51:46.548Z,0.48
2018-02-17T04:52:48.179Z,0.5
2018-02-17T04:53:50.755Z,0.48
2018-02-17T04:54:49.486Z,0.44
2018-02-17T04:55:51.475Z,0.44
2018-02-17T04:56:52.819Z,0.51
2018-02-17T04:57:53.118Z,0.54
2018-02-17T04:58:54.107Z,0.54
2018-02-17T04:59:56.352Z,0.45
2018-02-17T05:00:56.072Z,0.54
2018-02-17T05:01:56.744Z,0.53
2018-02-17T05:02:58.513Z,0.5
2018-02-17T05:03:59.330Z,0.54
2018-02-17T05:05:01.174Z,0.48
2018-02-17T05:06:01.004Z,0.54
2018-02-17T05:07:02.087Z,0.54
2018-02-17T05:08:02.594Z,0.54
2018-02-17T05:09:04.756Z,0.54
2018-02-17T05:10:04.440Z,0.44
2018-02-17T05:11:07.627Z,0.53
2018-02-17T05:12:07.962Z,0.57
2018-02-17T05:13:08.710Z,0.43
2018-02-17T05:14:09.433Z,0.43
2018-02-17T05:15:10.736Z,0.38
2018-02-17T05:16:11.699Z,0.41
2018-02-17T05:17:12.820Z,0.38
2018-02-17T05:18:13.952Z,0.47
2018-02-17T05:19:14.966Z,0.41
2018-02-17T05:20:16.144Z,0.48
2018-02-17T05:21:16.121Z,0.47
2018-02-17T05:22:17.076Z,0.47
2018-02-17T05:23:18.707Z,0.38
2018-02-17T05:24:19.113Z,0.45
2018-02-17T05:25:21.799Z,0.41
2018-02-17T05:26:22.092Z,0.38
2018-02-17T05:27:21.987Z,0.48
2018-02-17T05:28:23.181Z,0.45
2018-02-17T05:29:24.058Z,0.47
2018-02-17T05:30:25.210Z,0.38
2018-02-17T05:31:26.944Z,0.4
2018-02-17T05:32:27.775Z,0.54
2018-02-17T05:33:29.205Z,0.5
2018-02-17T05:34:29.528Z,0.54
2018-02-17T05:35:29.872Z,0.53
2018-02-17T05:36:30.936Z,0.54
2018-02-17T05:37:32.241Z,0.44
2018-02-17T05:38:32.626Z,0.63
2018-02-17T05:39:33.865Z,0.59
2018-02-17T05:40:35.732Z,0.5
2018-02-17T05:41:37.205Z,0.47
2018-02-17T05:42:38.853Z,0.62
2018-02-17T05:43:39.496Z,0.59
2018-02-17T05:44:39.995Z,0.48
2018-02-17T05:45:41.238Z,0.38
2018-02-17T05:46:42.595Z,0.47
2018-02-17T05:47:42.563Z,0.48
2018-02-17T05:48:44.183Z,0.5
2018-02-17T05:49:43.920Z,0.57
2018-02-17T05:50:45.689Z,0.44
2018-02-17T05:51:47.213Z,0.48
2018-02-17T05:52:47.331Z,0.43
2018-02-17T05:53:47.785Z,0.43
2018-02-17T05:54:48.797Z,0.45
2018-02-17T05:55:50.833Z,0.43
2018-02-17T05:56:51.967Z,0.43
2018-02-17T05:57:52.811Z,0.44
2018-02-17T05:58:54.986Z,0.38
2018-02-17T05:59:54.884Z,0.48
2018-02-17T06:00:55.573Z,0.48
2018-02-17T06:01:56.446Z,0.41
2018-02-17T06:03:00.494Z,0.47
2018-02-17T06:03:58.402Z,0.4
2018-02-17T06:04:59.655Z,0.44
2018-02-17T06:06:00.247Z,0.48
2018-02-17T06:07:00.931Z,0.44
2018-02-17T06:08:03.133Z,0.45
2018-02-17T06:09:03.723Z,0.48
2018-02-17T06:10:04.880Z,0.48
2018-02-17T06:11:05.802Z,0.5
2018-02-17T06:12:06.606Z,0.5
2018-02-17T06:13:08.688Z,0.44
2018-02-17T06:14:08.758Z,0.44
2018-02-17T06:15:10.058Z,0.48
2018-02-17T06:16:10.609Z,0.53
2018-02-17T06:17:12.386Z,0.53
2018-02-17T06:18:12.714Z,0.38
2018-02-17T06:19:14.604Z,0.41
2018-02-17T06:20:15.435Z,0.45
2018-02-17T06:21:15.765Z,0.43
2018-02-17T06:22:16.450Z,0.63
2018-02-17T06:23:17.712Z,0.38
2018-02-17T06:24:18.008Z,0.48
2018-02-17T06:25:19.291Z,0.47
2018-02-17T06:26:20.604Z,0.43
2018-02-17T06:27:20.981Z,0.38
2018-02-17T06:28:23.455Z,0.47
2018-02-17T06:29:23.352Z,0.43
2018-02-17T06:30:24.470Z,0.41
2018-02-17T06:31:24.662Z,0.47
2018-02-17T06:32:26.901Z,0.43
2018-02-17T06:33:27.331Z,0.41
2018-02-17T06:34:27.550Z,0.43
2018-02-17T06:35:28.339Z,0.4
2018-02-17T06:36:31.043Z,0.32
2018-02-17T06:37:31.504Z,0.41
2018-02-17T06:38:33.381Z,0.43
2018-02-17T06:39:33.421Z,0.43
2018-02-17T06:40:34.093Z,0.43
2018-02-17T06:41:34.452Z,0.47
2018-02-17T06:42:37.356Z,0.43
2018-02-17T06:43:38.058Z,0.47
2018-02-17T06:44:38.188Z,0.38
2018-02-17T06:45:41.077Z,0.41
2018-02-17T06:46:40.552Z,0.43
2018-02-17T06:47:42.717Z,0.41
2018-02-17T06:48:42.832Z,0.38
2018-02-17T06:49:45.391Z,0.43
2018-02-17T06:50:46.325Z,0.4
2018-02-17T06:51:47.183Z,0.38
2018-02-17T06:52:46.097Z,0.37
2018-02-17T06:53:48.615Z,0.32
2018-02-17T06:54:49.079Z,0.4
2018-02-17T06:55:49.523Z,0.32
2018-02-17T06:56:50.673Z,0.41
2018-02-17T06:57:50.813Z,0.38
2018-02-17T06:58:51.519Z,0.38
2018-02-17T06:59:52.913Z,0.43
2018-02-17T07:00:55.057Z,0.35
2018-02-17T07:01:56.526Z,0.35
2018-02-17T07:02:56.925Z,0.43
2018-02-17T07:03:58.186Z,0.28
2018-02-17T07:04:58.971Z,0.38
2018-02-17T07:05:59.913Z,0.28
2018-02-17T07:07:00.921Z,0.32
2018-02-17T07:08:01.158Z,0.34
2018-02-17T07:09:02.593Z,0.35
2018-02-17T07:10:04.308Z,0.34
2018-02-17T07:11:04.225Z,0.38
2018-02-17T07:12:06.735Z,0.29
2018-02-17T07:13:06.673Z,0.35
2018-02-17T07:14:06.545Z,0.4
2018-02-17T07:15:07.691Z,0.43
2018-02-17T07:16:09.506Z,0.35
2018-02-17T07:17:11.661Z,0.26
2018-02-17T07:18:12.297Z,0.26
2018-02-17T07:19:13.069Z,0.34
2018-02-17T07:20:13.539Z,0.22
2018-02-17T07:21:14.184Z,0.31
2018-02-17T07:22:15.239Z,0.35
2018-02-17T07:23:18.186Z,0.22
2018-02-17T07:24:18.142Z,0.31
2018-02-17T07:25:18.673Z,0.23
2018-02-17T07:26:19.145Z,0.31
2018-02-17T07:27:21.044Z,0.29
2018-02-17T07:28:21.066Z,0.28
2018-02-17T07:29:21.574Z,0.29
2018-02-17T07:30:23.365Z,0.21
2018-02-17T07:31:24.204Z,0.29
2018-02-17T07:32:25.915Z,0.26
2018-02-17T07:33:27.151Z,0.26
2018-02-17T07:34:28.538Z,0.31
2018-02-17T07:35:28.176Z,0.34
2018-02-17T07:36:28.875Z,0.41
2018-02-17T07:37:30.203Z,0.34
2018-02-17T07:38:31.809Z,0.26
2018-02-17T07:39:32.529Z,0.31
2018-02-17T07:40:34.520Z,0.26
2018-02-17T07:41:34.257Z,0.54
2018-02-17T07:42:34.521Z,0.26
2018-02-17T07:43:37.107Z,0.29
2018-02-17T07:44:37.380Z,0.15
2018-02-17T07:45:37.652Z,0.38
2018-02-17T07:46:41.521Z,0.57
2018-02-17T07:47:40.125Z,0.35
2018-02-17T07:48:41.571Z,0.31
2018-02-17T07:49:43.053Z,0.32
2018-02-17T07:50:44.131Z,0.43
2018-02-17T07:51:44.124Z,0.44
2018-02-17T07:52:44.911Z,0.45
2018-02-17T07:53:46.914Z,0.43
2018-02-17T07:54:47.585Z,0.43
2018-02-17T07:55:49.496Z,0.32
2018-02-17T07:56:50.495Z,0.45
2018-02-17T07:57:51.735Z,0.54
2018-02-17T07:58:52.617Z,0.35
2018-02-17T07:59:53.447Z,0.35
2018-02-17T08:00:56.327Z,0.47
2018-02-17T08:01:55.743Z,0.47
2018-02-17T08:02:56.934Z,0.35
2018-02-17T08:03:58.865Z,0.26
2018-02-17T08:04:58.299Z,0.34
2018-02-17T08:07:18.121Z,0.34
2018-02-17T08:07:27.459Z,0.43
2018-02-17T08:08:23.922Z,0.26
2018-02-17T08:09:24.519Z,0.35
2018-02-17T08:10:24.942Z,0.26
2018-02-17T08:11:27.078Z,0.31
2018-02-17T08:12:26.797Z,0.26
2018-02-17T08:13:28.309Z,0.37
2018-02-17T08:14:29.024Z,0.29
2018-02-17T08:15:29.693Z,0.31
2018-02-17T08:16:31.855Z,0.22
2018-02-17T08:17:32.135Z,0.26
2018-02-17T08:18:32.418Z,0.31
2018-02-17T08:19:33.149Z,0.26
2018-02-17T08:20:34.051Z,0.22
2018-02-17T08:21:35.098Z,0.29
2018-02-17T08:22:36.156Z,0.22
2018-02-17T08:23:38.951Z,0.26
2018-02-17T08:24:37.728Z,0.31
2018-02-17T08:25:38.409Z,0.31
2018-02-17T08:26:40.184Z,0.41
2018-02-17T08:27:42.691Z,0.38
2018-02-17T08:28:45.608Z,0.21
2018-02-17T08:29:44.539Z,0.29
2018-02-17T08:30:45.262Z,0.29
2018-02-17T08:31:45.478Z,0.21
2018-02-17T08:32:46.537Z,0.31
2018-02-17T08:33:47.621Z,0.31
2018-02-17T08:34:49.028Z,0.28
2018-02-17T08:35:48.853Z,0.26
2018-02-17T08:36:50.559Z,0.22
2018-02-17T08:37:51.206Z,0.31
2018-02-17T08:38:52.149Z,0.25
2018-02-17T08:39:53.986Z,0.29
2018-02-17T08:40:54.654Z,0.23
2018-02-17T08:41:55.650Z,0.31
2018-02-17T08:42:55.983Z,0.32
2018-02-17T08:43:57.319Z,0.31
2018-02-17T08:44:59.158Z,0.48
2018-02-17T08:46:00.298Z,0.47
2018-02-17T08:47:01.379Z,0.4
2018-02-17T08:48:02.831Z,0.26
2018-02-17T08:49:03.973Z,0.38
2018-02-17T08:50:04.924Z,0.38
2018-02-17T08:51:04.956Z,0.4
2018-02-17T08:52:06.331Z,0.23
2018-02-17T08:53:07.472Z,0.38
2018-02-17T08:54:07.592Z,0.28
2018-02-17T08:55:09.606Z,0.22
2018-02-17T08:56:09.006Z,0.25
2018-02-17T08:57:10.451Z,0.23
2018-02-17T08:58:11.565Z,0.25
2018-02-17T08:59:14.309Z,0.25
2018-02-17T09:00:15.765Z,0.19
2018-02-17T09:01:17.924Z,0.21
2018-02-17T09:02:18.493Z,0.31
2018-02-17T09:03:19.318Z,0.25
2018-02-17T09:04:18.949Z,0.26
2018-02-17T09:05:20.326Z,0.31
2018-02-17T09:06:19.733Z,0.25
2018-02-17T09:07:20.593Z,0.21
2018-02-17T09:08:21.384Z,0.28
2018-02-17T09:09:22.937Z,0.25
2018-02-17T09:10:23.482Z,0.31
2018-02-17T09:11:25.041Z,0.26
2018-02-17T09:12:24.711Z,0.4
2018-02-17T09:13:26.918Z,0.31
2018-02-17T09:14:27.427Z,0.35
2018-02-17T09:15:28.414Z,0.43
2018-02-17T09:16:29.665Z,0.43
2018-02-17T09:17:29.722Z,0.35
2018-02-17T09:18:30.619Z,0.31
2018-02-17T09:19:38.304Z,0.37
2018-02-17T09:20:33.403Z,0.31
2018-02-17T09:21:35.464Z,0.35
2018-02-17T09:22:37.077Z,0.25
2018-02-17T09:23:37.404Z,0.25
2018-02-17T09:24:37.713Z,0.47
2018-02-17T09:25:38.986Z,0.35
2018-02-17T09:26:39.655Z,0.37
2018-02-17T09:27:39.722Z,0.38
2018-02-17T09:28:40.676Z,0.47
2018-02-17T09:29:42.399Z,0.35
2018-02-17T09:30:43.149Z,0.29
2018-02-17T09:31:44.509Z,0.5
2018-02-17T09:32:45.584Z,0.21
2018-02-17T09:33:46.508Z,0.25
2018-02-17T09:34:46.371Z,0.31
2018-02-17T09:35:49.065Z,0.21
2018-02-17T09:36:49.448Z,0.23
2018-02-17T09:37:50.472Z,0.34
2018-02-17T09:38:52.524Z,0.34
2018-02-17T09:39:52.450Z,0.34
2018-02-17T09:40:54.906Z,0.29
2018-02-17T09:41:54.578Z,0.22
2018-02-17T09:42:56.390Z,0.31
2018-02-17T09:43:56.048Z,0.29
2018-02-17T09:44:57.286Z,0.4
2018-02-17T09:45:58.959Z,0.4
2018-02-17T09:46:59.849Z,0.22
2018-02-17T09:48:01.042Z,0.32
2018-02-17T09:49:02.443Z,0.16
2018-02-17T09:50:03.715Z,0.25
2018-02-17T09:51:04.510Z,0.25
2018-02-17T09:52:06.901Z,0.31
2018-02-17T09:53:05.760Z,0.28
2018-02-17T09:54:41.658Z,0.21
2018-02-17T09:55:08.458Z,0.31
2018-02-17T09:56:11.316Z,0.23
2018-02-17T09:57:11.307Z,0.22
2018-02-17T09:58:12.328Z,0.23
2018-02-17T09:59:13.436Z,0.31
2018-02-17T10:01:31.885Z,0.35
2018-02-17T10:01:41.204Z,0.31
2018-02-17T10:02:39.931Z,0.37
2018-02-17T10:03:39.582Z,0.37
2018-02-17T10:04:40.788Z,0.53
2018-02-17T10:05:41.654Z,0.43
2018-02-17T10:06:42.536Z,0.4
2018-02-17T10:07:43.224Z,0.32
2018-02-17T10:08:45.113Z,0.47
2018-02-17T10:09:44.832Z,0.35
2018-02-17T10:10:47.880Z,0.28
2018-02-17T10:11:46.226Z,0.31
2018-02-17T10:12:47.600Z,0.26
2018-02-17T10:13:48.478Z,0.35
2018-02-17T10:14:49.978Z,0.43
2018-02-17T10:15:50.554Z,0.38
2018-02-17T10:16:54.292Z,0.32
2018-02-17T10:17:53.241Z,0.43
2018-02-17T10:18:53.519Z,0.5
2018-02-17T10:19:54.746Z,0.45
2018-02-17T10:20:55.912Z,0.38
2018-02-17T10:21:57.271Z,0.54
2018-02-17T10:22:57.146Z,0.4
2018-02-17T10:23:58.365Z,0.47
2018-02-17T10:24:59.805Z,0.41
2018-02-17T10:26:01.911Z,0.4
2018-02-17T10:27:03.489Z,0.38
2018-02-17T10:28:03.303Z,0.41
2018-02-17T10:29:03.684Z,0.38
2018-02-17T10:30:05.275Z,0.38
2018-02-17T10:31:05.866Z,0.43
2018-02-17T10:32:08.409Z,0.43
2018-02-17T10:33:07.739Z,0.41
2018-02-17T10:34:12.624Z,0.43
2018-02-17T10:35:11.219Z,0.43
2018-02-17T10:36:24.146Z,0.4
2018-02-17T10:37:12.891Z,0.38
2018-02-17T10:38:13.042Z,0.4
2018-02-17T10:39:13.428Z,0.43
2018-02-17T10:40:13.803Z,0.38
2018-02-17T10:41:18.015Z,0.35
2018-02-17T10:42:17.207Z,0.41
2018-02-17T10:43:18.075Z,0.47
2018-02-17T10:44:18.695Z,0.35
2018-02-17T10:45:18.366Z,0.35
2018-02-17T10:46:20.317Z,0.38
2018-02-17T10:47:21.363Z,0.43
2018-02-17T10:48:25.319Z,0.43
2018-02-17T10:49:24.718Z,0.41
2018-02-17T10:50:23.459Z,0.41
2018-02-17T10:51:24.489Z,0.43
2018-02-17T10:52:26.899Z,0.41
2018-02-17T10:53:27.376Z,0.38
2018-02-17T10:54:28.217Z,0.41
2018-02-17T10:55:29.623Z,0.38
2018-02-17T10:56:30.043Z,0.43
2018-02-17T10:57:31.012Z,0.43
2018-02-17T10:58:33.888Z,0.47
2018-02-17T10:59:33.322Z,0.47
2018-02-17T11:00:34.495Z,0.43
2018-02-17T11:01:35.716Z,0.41
2018-02-17T11:02:35.989Z,0.43
2018-02-17T11:03:39.768Z,0.43
2018-02-17T11:04:40.875Z,0.4
2018-02-17T11:05:38.547Z,0.43
2018-02-17T11:06:39.879Z,0.48
2018-02-17T11:07:42.731Z,0.48
2018-02-17T11:08:41.638Z,0.5
2018-02-17T11:09:45.084Z,0.44
2018-02-17T11:10:44.384Z,0.44
2018-02-17T11:11:46.913Z,0.45
2018-02-17T11:12:48.082Z,0.48
2018-02-17T11:13:47.373Z,0.43
2018-02-17T11:16:14.998Z,0.43
2018-02-17T11:16:23.183Z,0.45
2018-02-17T11:17:20.826Z,0.4
2018-02-17T11:18:24.520Z,0.44
2018-02-17T11:19:24.679Z,0.47
2018-02-17T11:20:25.388Z,0.47
2018-02-17T11:21:25.823Z,0.44
2018-02-17T11:22:26.926Z,0.44
2018-02-17T11:23:28.878Z,0.47
2018-02-17T11:24:30.018Z,0.43
2018-02-17T11:25:29.232Z,0.47
2018-02-17T11:26:30.209Z,0.43
2018-02-17T11:27:31.906Z,0.48
2018-02-17T11:28:33.338Z,0.47
2018-02-17T11:30:05.927Z,0.47
2018-02-17T11:30:34.892Z,0.44
2018-02-17T11:32:59.011Z,0.45
2018-02-17T11:33:09.921Z,0.44
2018-02-17T11:34:06.761Z,0.45
2018-02-17T11:35:06.547Z,0.51
2018-02-17T11:36:07.971Z,0.44
2018-02-17T11:37:08.627Z,0.47
2018-02-17T11:38:08.586Z,0.51
2018-02-17T11:39:10.889Z,0.31
2018-02-17T11:40:12.170Z,0.37
2018-02-17T11:41:12.911Z,0.35
2018-02-17T11:42:13.466Z,0.32
2018-02-17T11:43:15.929Z,0.32
2018-02-17T11:44:31.121Z,0.35
2018-02-17T11:45:17.596Z,0.35
2018-02-17T11:46:19.685Z,0.37
2018-02-17T11:47:19.495Z,0.32
2018-02-17T11:48:24.205Z,0.4
2018-02-17T11:49:20.829Z,0.38
2018-02-17T11:50:21.473Z,0.38
2018-02-17T11:51:22.462Z,0.32
2018-02-17T11:52:26.161Z,0.38
2018-02-17T11:53:27.065Z,0.15
2018-02-17T11:54:26.113Z,0.38
2018-02-17T11:55:27.848Z,0.41
2018-02-17T11:56:27.858Z,0.37
2018-02-17T11:57:29.065Z,0.25
2018-02-17T11:58:29.165Z,0.41
2018-02-17T11:59:31.245Z,0.37
2018-02-17T12:00:31.882Z,0.37
2018-02-17T12:01:32.392Z,0.26
2018-02-17T12:02:32.516Z,0.26
2018-02-17T12:03:34.282Z,0.29
2018-02-17T12:04:35.690Z,0.32
2018-02-17T12:05:37.345Z,0.31
2018-02-17T12:06:40.438Z,0.35
2018-02-17T12:07:39.189Z,0.37
2018-02-17T12:08:39.559Z,0.34
2018-02-17T12:09:40.488Z,0.32
2018-02-17T12:10:42.976Z,0.32
2018-02-17T12:11:42.282Z,0.35
2018-02-17T12:12:45.240Z,0.35
2018-02-17T12:13:44.871Z,0.35
2018-02-17T12:14:45.131Z,0.37
2018-02-17T12:15:46.569Z,0.35
2018-02-17T12:16:46.500Z,0.41
2018-02-17T12:17:47.498Z,0.43
2018-02-17T12:18:50.498Z,0.4
2018-02-17T12:19:50.692Z,0.4
2018-02-17T12:20:52.669Z,0.44
2018-02-17T12:21:54.311Z,0.45
2018-02-17T12:22:55.405Z,0.48
2018-02-17T12:26:17.878Z,0.5
2018-02-17T12:27:03.360Z,0.48
2018-02-17T12:28:06.003Z,0.53
2018-02-17T12:29:05.552Z,0.54
2018-02-17T12:30:08.500Z,0.62
2018-02-17T12:31:07.533Z,0.6
2018-02-17T12:32:20.915Z,0.66
2018-02-17T12:33:10.282Z,0.66
2018-02-17T12:34:11.594Z,0.7
2018-02-17T12:35:13.238Z,0.76
2018-02-17T12:36:17.164Z,0.7
2018-02-17T12:37:15.424Z,0.67
2018-02-17T12:38:15.157Z,0.88
2018-02-17T12:39:18.040Z,0.75
2018-02-17T12:40:17.948Z,0.72
2018-02-17T12:41:18.395Z,0.66
2018-02-17T12:42:22.195Z,0.53
2018-02-17T12:43:20.679Z,0.47
2018-02-17T12:44:21.870Z,0.54
2018-02-17T12:45:24.065Z,0.48
2018-02-17T12:46:24.445Z,0.48
2018-02-17T12:47:24.800Z,0.5
2018-02-17T12:48:25.601Z,0.54
2018-02-17T12:49:29.264Z,0.5
2018-02-17T12:50:28.621Z,0.6
2018-02-17T12:51:28.318Z,0.45
2018-02-17T12:52:30.070Z,0.48
2018-02-17T12:53:30.722Z,0.48
2018-02-17T12:54:31.053Z,0.57
2018-02-17T12:55:32.863Z,0.53
2018-02-17T12:56:33.206Z,0.53
2018-02-17T12:57:35.805Z,0.57
2018-02-17T12:58:36.247Z,0.53
2018-02-17T12:59:36.922Z,0.5
2018-02-17T13:00:37.886Z,0.6
2018-02-17T13:01:39.952Z,0.54
2018-02-17T13:02:41.026Z,0.47
2018-02-17T13:03:40.860Z,0.6
2018-02-17T13:04:40.960Z,0.72
2018-02-17T13:05:44.071Z,0.57
2018-02-17T13:06:43.688Z,0.57
2018-02-17T13:07:44.863Z,0.6
2018-02-17T13:08:46.939Z,0.66
2018-02-17T13:09:48.878Z,0.73
2018-02-17T13:10:52.064Z,0.78
2018-02-17T13:13:06.535Z,0.67
2018-02-17T13:13:11.201Z,0.62
2018-02-17T13:14:12.326Z,0.76
2018-02-17T13:15:11.729Z,0.72
2018-02-17T13:17:15.764Z,0.73
2018-02-17T13:17:26.637Z,0.78
2018-02-17T13:18:21.950Z,0.87
2018-02-17T13:19:23.622Z,0.84
2018-02-17T13:20:23.896Z,0.84
2018-02-17T13:22:00.463Z,0.89
2018-02-17T13:22:24.936Z,0.75
2018-02-17T13:23:26.596Z,0.85
2018-02-17T13:24:28.612Z,0.87
2018-02-17T13:25:29.858Z,0.84
2018-02-17T13:27:07.810Z,0.81
2018-02-17T13:27:32.474Z,0.94
2018-02-17T13:28:32.375Z,0.73
2018-02-17T13:29:33.805Z,0.88
2018-02-17T13:32:27.624Z,0.85
2018-02-17T13:32:38.404Z,0.97
2018-02-17T13:33:35.291Z,0.94
2018-02-17T13:34:34.278Z,0.87
2018-02-17T13:35:37.022Z,0.92
2018-02-17T13:36:39.532Z,0.88
2018-02-17T13:37:38.813Z,0.78
2018-02-17T13:38:40.290Z,0.73
2018-02-17T13:39:42.022Z,0.85
2018-02-17T13:40:43.175Z,0.87